Time;durP1;ratioP1;P1;durP2;ratioP2;P2;SDS_P1;SDS_P2;PMS_P1;PMS_P2;Temp;Humidity;BMP_temperature;BMP_pressure;BME280_temperature;BME280_humidity;BME280_pressure;Samples;Min_cycle;Max_cycle;Signal;HPM_P1;HPM_P2
2022/08/23 00:02:15;;;;;;;6.53;6.03;;;;;;;14.79;100.00;97004.69;4979723;28;20215;-62
2022/08/23 00:04:51;;;;;;;6.63;6.13;;;;;;;14.72;100.00;97012.72;5021948;28;20216;-65
2022/08/23 00:07:37;;;;;;;6.07;5.67;;;;;;;14.65;100.00;96995.91;5023079;28;20211;-65
2022/08/23 00:10:07;;;;;;;6.60;6.10;;;;;;;14.67;100.00;97014.34;5009824;28;20203;-62
2022/08/23 00:12:37;;;;;;;7.40;6.80;;;;;;;14.55;100.00;97014.19;5018378;28;20554;-64
2022/08/23 00:15:07;;;;;;;7.73;7.03;;;;;;;14.54;100.00;97015.22;5027788;28;20773;-63
2022/08/23 00:17:36;;;;;;;6.70;6.20;;;;;;;14.60;100.00;97012.53;4978197;28;20215;-64
2022/08/23 00:20:06;;;;;;;7.00;6.50;;;;;;;14.60;100.00;97012.53;5024588;28;20885;-64
2022/08/23 00:22:35;;;;;;;8.10;6.67;;;;;;;14.41;100.00;97002.81;5020949;28;20199;-64
2022/08/23 00:25:03;;;;;;;6.47;6.00;;;;;;;14.33;100.00;97006.53;5009496;28;20200;-65
2022/08/23 00:27:32;;;;;;;6.73;6.27;;;;;;;14.29;100.00;97013.31;5022882;28;20409;-62
2022/08/23 00:30:02;;;;;;;6.80;6.20;;;;;;;14.36;100.00;97002.63;5029467;28;20978;-65
2022/08/23 00:32:34;;;;;;;7.70;7.10;;;;;;;14.23;100.00;97006.19;4967166;28;20496;-64
2022/08/23 00:35:04;;;;;;;7.33;6.73;;;;;;;14.44;100.00;97010.38;5020457;28;20238;-64
2022/08/23 00:37:33;;;;;;;7.13;6.53;;;;;;;14.38;100.00;97006.72;5022321;28;20195;-65
2022/08/23 00:40:01;;;;;;;7.13;6.43;;;;;;;14.09;100.00;97000.88;5026976;28;20314;-65
2022/08/23 00:48:11;;;;;;;7.83;7.13;;;;;;;14.26;100.00;96998.56;4975206;28;20255;-61
2022/08/23 00:50:42;;;;;;;7.50;7.00;;;;;;;14.23;100.00;97006.19;5028961;28;20299;-64
2022/08/23 00:53:16;;;;;;;7.63;7.13;;;;;;;14.38;100.00;97001.38;5025452;28;20239;-61
2022/08/23 00:55:47;;;;;;;8.00;7.30;;;;;;;14.18;100.00;97001.47;5024428;28;20306;-62
2022/08/23 00:58:19;;;;;;;7.30;6.70;;;;;;;14.21;100.00;97013.56;5009686;28;20361;-62
2022/08/23 01:00:50;;;;;;;7.53;6.80;;;;;;;14.24;100.00;97007.81;5030496;28;20311;-64
2022/08/23 01:03:19;;;;;;;7.53;6.83;;;;;;;14.21;100.00;97014.38;4978685;28;20234;-61
2022/08/23 01:05:52;;;;;;;7.60;6.90;;;;;;;14.15;100.00;97008.03;5025517;28;20264;-65
2022/08/23 01:08:22;;;;;;;7.00;6.43;;;;;;;14.12;100.00;97011.13;5031025;28;20311;-61
2022/08/23 01:10:54;;;;;;;6.93;6.43;;;;;;;14.06;100.00;97011.97;5030580;28;20291;-65
2022/08/23 01:13:28;;;;;;;6.97;6.47;;;;;;;13.98;100.00;97014.88;5011389;28;20586;-59
2022/08/23 01:16:05;;;;;;;6.93;6.43;;;;;;;13.91;100.00;97014.06;5025641;28;20310;-64
2022/08/23 01:18:34;;;;;;;6.67;6.17;;;;;;;13.69;100.00;97009.00;4964308;28;20260;-66
2022/08/23 01:21:07;;;;;;;7.20;6.67;;;;;;;13.62;100.00;97008.19;5025661;28;20255;-64
2022/08/23 01:23:42;;;;;;;6.80;6.27;;;;;;;13.51;100.00;97022.94;5014251;28;20809;-64
2022/08/23 01:26:11;;;;;;;6.70;6.20;;;;;;;13.46;100.00;97012.94;4991373;28;20215;-61
2022/08/23 01:28:40;;;;;;;7.47;6.77;;;;;;;13.54;100.00;97014.56;5000177;28;21241;-65
2022/08/23 01:31:14;;;;;;;7.30;6.57;;;;;;;13.62;100.00;97024.97;5026970;28;20207;-60
2022/08/23 01:33:44;;;;;;;7.17;6.60;;;;;;;13.57;100.00;97024.78;4970877;28;21195;-64
2022/08/23 01:36:15;;;;;;;7.57;6.97;;;;;;;13.35;100.00;97030.31;5025199;28;20330;-61
2022/08/23 01:38:45;;;;;;;7.40;6.77;;;;;;;13.28;100.00;97037.50;4944472;28;20228;-60
2022/08/23 01:41:13;;;;;;;8.13;7.57;;;;;;;13.21;100.00;97026.84;5028610;28;20277;-64
2022/08/23 01:43:41;;;;;;;7.70;7.10;;;;;;;13.08;100.00;97027.63;5011953;28;20239;-60
2022/08/23 01:46:11;;;;;;;7.67;7.17;;;;;;;13.09;100.00;97023.97;5023527;28;20219;-63
2022/08/23 01:48:40;;;;;;;7.77;7.07;;;;;;;13.08;100.00;97032.16;5032270;28;20235;-61
2022/08/23 01:51:09;;;;;;;7.17;6.67;;;;;;;13.08;100.00;97021.53;5001844;28;20215;-62
2022/08/23 01:53:38;;;;;;;7.87;7.37;;;;;;;13.15;100.00;97027.66;4971158;28;20980;-62
2022/08/23 01:56:08;;;;;;;7.37;6.80;;;;;;;13.04;100.00;97023.75;5021808;28;20239;-63
2022/08/23 01:58:37;;;;;;;7.77;7.20;;;;;;;12.95;100.00;97009.81;5025568;28;20273;-62
2022/08/23 02:01:06;;;;;;;7.23;6.83;;;;;;;12.84;100.00;97027.19;5007524;28;20281;-64
2022/08/23 02:03:36;;;;;;;7.17;6.67;;;;;;;12.86;100.00;97019.03;5024998;28;20398;-62
2022/08/23 02:06:04;;;;;;;7.63;7.03;;;;;;;12.80;100.00;97019.84;5009305;28;20207;-63
2022/08/23 02:11:22;;;;;;;7.97;7.37;;;;;;;12.51;100.00;97017.34;5024574;28;20207;-65
2022/08/23 02:13:52;;;;;;;7.53;7.03;;;;;;;12.59;100.00;97026.94;5021954;28;20433;-62
2022/08/23 02:16:24;;;;;;;7.87;7.30;;;;;;;12.65;100.00;97022.69;5013627;28;20208;-65
2022/08/23 02:18:56;;;;;;;7.73;7.20;;;;;;;12.54;100.00;97030.22;5024181;28;20215;-65
2022/08/23 02:21:25;;;;;;;8.70;8.03;;;;;;;12.42;100.00;97029.16;5009998;28;20232;-66
2022/08/23 02:23:53;;;;;;;8.97;8.27;;;;;;;12.60;100.00;97033.91;4975179;28;21017;-64
2022/08/23 02:26:23;;;;;;;8.07;7.47;;;;;;;12.57;100.00;97029.00;5026770;28;20200;-63
2022/08/23 02:28:58;;;;;;;8.50;7.67;;;;;;;12.44;100.00;97032.41;5028883;28;20234;-64
2022/08/23 02:31:26;;;;;;;8.67;8.00;;;;;;;12.42;100.00;97029.97;5008981;28;20583;-63
2022/08/23 02:33:55;;;;;;;8.57;7.77;;;;;;;12.25;100.00;97042.78;5024901;28;20197;-64
2022/08/23 02:36:42;;;;;;;8.17;7.43;;;;;;;12.33;100.00;97047.13;5005797;28;20215;-61
2022/08/23 02:39:11;;;;;;;8.87;8.07;;;;;;;12.16;100.00;97036.00;4972490;28;20222;-61
2022/08/23 02:41:41;;;;;;;8.07;7.37;;;;;;;12.07;100.00;97038.00;5019135;28;20232;-60
2022/08/23 02:44:10;;;;;;;9.37;8.60;;;;;;;11.71;100.00;97031.84;5020400;28;20207;-62
2022/08/23 02:46:39;;;;;;;7.87;7.27;;;;;;;12.07;100.00;97034.53;5006077;28;20216;-60
2022/08/23 02:49:08;;;;;;;8.00;7.47;;;;;;;12.13;100.00;97037.22;5027083;28;20277;-60
2022/08/23 02:51:37;;;;;;;8.13;7.63;;;;;;;12.11;100.00;97036.59;5030627;28;20567;-60
2022/08/23 02:54:06;;;;;;;7.50;6.90;;;;;;;12.07;100.00;97038.00;5006828;28;20212;-62
2022/08/23 02:56:34;;;;;;;7.83;7.27;;;;;;;11.98;100.00;97042.63;4973054;28;20307;-60
2022/08/23 02:59:05;;;;;;;8.07;7.43;;;;;;;12.07;100.00;97048.63;5028251;28;20549;-63
2022/08/23 03:01:36;;;;;;;8.57;7.77;;;;;;;11.89;100.00;97046.47;5024442;28;20234;-61
2022/08/23 03:04:05;;;;;;;8.27;7.67;;;;;;;11.76;100.00;97052.50;5021061;28;20214;-63
2022/08/23 03:06:34;;;;;;;8.13;7.50;;;;;;;11.76;100.00;97059.66;5028429;28;20201;-61
2022/08/23 03:09:03;;;;;;;8.00;7.50;;;;;;;11.83;100.00;97056.00;5011076;28;20678;-63
2022/08/23 03:11:32;;;;;;;7.50;7.00;;;;;;;11.68;100.00;97050.00;4974787;28;20220;-62
2022/08/23 03:14:00;;;;;;;7.87;7.37;;;;;;;11.75;100.00;97048.22;5027767;28;20400;-63
2022/08/23 03:16:32;;;;;;;8.60;7.83;;;;;;;11.61;100.00;97055.25;5027496;28;20234;-60
2022/08/23 03:19:01;;;;;;;8.07;7.53;;;;;;;11.74;100.00;97059.84;5012973;28;20349;-61
2022/08/23 03:21:30;;;;;;;7.87;7.37;;;;;;;11.71;100.00;97060.25;5030710;28;20242;-60
2022/08/23 03:23:59;;;;;;;8.70;7.50;;;;;;;11.63;100.00;97053.25;5007345;28;20261;-64
2022/08/23 03:26:27;;;;;;;8.40;7.70;;;;;;;11.62;100.00;97053.44;4982017;28;20211;-60
2022/08/23 03:28:56;;;;;;;8.50;7.90;;;;;;;11.69;100.00;97054.31;5019975;28;20274;-64
2022/08/23 03:31:24;;;;;;;8.10;7.33;;;;;;;11.68;100.00;97048.16;5031962;28;20196;-62
2022/08/23 03:33:58;;;;;;;8.00;7.43;;;;;;;11.54;100.00;97049.09;5004612;28;20241;-67
2022/08/23 03:36:26;;;;;;;7.90;7.20;;;;;;;11.51;100.00;97047.63;5033620;28;20265;-59
2022/08/23 03:38:55;;;;;;;7.80;7.20;;;;;;;11.50;100.00;97050.50;5029670;28;20535;-63
2022/08/23 03:41:24;;;;;;;8.83;8.13;;;;;;;11.57;100.00;97056.66;5007188;28;20529;-65
2022/08/23 03:43:53;;;;;;;9.07;8.43;;;;;;;11.62;100.00;97046.28;4979883;28;20223;-63
2022/08/23 03:46:23;;;;;;;8.67;8.17;;;;;;;11.64;100.00;97059.38;4966930;28;20220;-64
2022/08/23 03:48:52;;;;;;;10.20;9.50;;;;;;;11.53;100.00;97039.50;5019323;28;20236;-62
2022/08/23 03:51:24;;;;;;;8.73;8.03;;;;;;;11.48;100.00;97050.69;5012816;28;20226;-64
2022/08/23 03:53:52;;;;;;;8.40;7.73;;;;;;;11.38;100.00;97058.16;5028528;28;20434;-61
2022/08/23 03:56:22;;;;;;;7.73;7.23;;;;;;;11.46;100.00;97058.00;5004964;28;20556;-61
2022/08/23 03:58:51;;;;;;;8.30;7.70;;;;;;;11.48;100.00;97058.63;5025368;28;20262;-61
2022/08/23 04:01:20;;;;;;;8.63;7.93;;;;;;;11.40;100.00;97064.94;4969811;28;20312;-64
2022/08/23 04:03:58;;;;;;;7.37;6.87;;;;;;;11.20;100.00;97072.72;5020372;28;20231;-61
2022/08/23 04:06:30;;;;;;;9.03;8.17;;;;;;;11.26;100.00;97074.59;5031482;28;20200;-63
2022/08/23 04:08:59;;;;;;;8.53;7.83;;;;;;;11.37;100.00;97075.09;5026567;28;20271;-62
2022/08/23 04:11:27;;;;;;;8.63;8.03;;;;;;;11.22;100.00;97075.16;5008547;28;20207;-62
2022/08/23 04:13:56;;;;;;;8.47;7.87;;;;;;;11.22;100.00;97070.69;5020889;28;20250;-62
2022/08/23 04:16:24;;;;;;;9.03;8.33;;;;;;;11.21;100.00;97070.88;4978793;28;21641;-64
2022/08/23 04:18:52;;;;;;;8.77;7.97;;;;;;;11.20;100.00;97079.84;5026602;28;20227;-61
2022/08/23 04:21:22;;;;;;;9.17;8.57;;;;;;;11.18;100.00;97071.25;5025149;28;20453;-63
2022/08/23 04:23:52;;;;;;;8.60;8.00;;;;;;;11.29;100.00;97078.69;5028462;28;20687;-61
2022/08/23 04:26:21;;;;;;;8.60;8.10;;;;;;;11.26;100.00;97082.56;4997888;28;20444;-63
2022/08/23 04:28:55;;;;;;;8.83;8.20;;;;;;;11.19;100.00;97086.16;5024605;28;20225;-60
2022/08/23 04:31:25;;;;;;;9.70;8.83;;;;;;;11.21;100.00;97094.75;5024376;28;20212;-63
2022/08/23 04:33:54;;;;;;;9.57;8.87;;;;;;;11.26;100.00;97092.34;4976456;28;20215;-62
2022/08/23 04:36:23;;;;;;;10.10;8.87;;;;;;;11.28;100.00;97093.78;5029254;28;20204;-62
2022/08/23 04:38:53;;;;;;;9.07;8.13;;;;;;;11.20;100.00;97096.59;5027073;28;20256;-62
2022/08/23 04:44:08;;;;;;;9.83;8.93;;;;;;;11.05;100.00;97093.16;5025584;28;20207;-62
2022/08/23 04:46:36;;;;;;;9.77;8.90;;;;;;;11.26;100.00;97094.97;5026801;28;20207;-64
2022/08/23 04:49:04;;;;;;;9.77;8.87;;;;;;;11.37;100.00;97097.16;4972621;28;20770;-61
2022/08/23 04:51:33;;;;;;;10.27;9.37;;;;;;;11.41;100.00;97102.88;5027728;28;20198;-63
2022/08/23 04:54:03;;;;;;;10.03;9.43;;;;;;;11.48;100.00;97087.81;5027081;28;20258;-60
2022/08/23 04:56:31;;;;;;;11.60;10.43;;;;;;;11.58;100.00;97103.41;5007618;28;20203;-65
2022/08/23 04:58:59;;;;;;;10.90;10.13;;;;;;;11.59;100.00;97099.75;5025475;28;20259;-64
2022/08/23 05:01:28;;;;;;;9.23;8.63;;;;;;;11.70;100.00;97099.22;5023623;28;20305;-64
2022/08/23 05:03:56;;;;;;;10.17;9.47;;;;;;;11.72;100.00;97101.69;4976080;28;20211;-62
2022/08/23 05:06:24;;;;;;;10.30;9.50;;;;;;;11.75;100.00;97100.50;5022875;28;20230;-63
2022/08/23 05:08:53;;;;;;;10.53;9.67;;;;;;;11.88;100.00;97101.38;5028946;28;20219;-61
2022/08/23 05:11:22;;;;;;;9.50;8.90;;;;;;;11.96;100.00;97105.72;5009730;28;20522;-63
2022/08/23 05:13:51;;;;;;;10.30;9.37;;;;;;;12.00;100.00;97101.69;5022241;28;20204;-60
2022/08/23 05:16:20;;;;;;;9.60;9.00;;;;;;;12.09;100.00;97098.88;5021692;28;20214;-63
2022/08/23 05:18:49;;;;;;;9.50;8.90;;;;;;;12.22;100.00;97100.78;5025864;28;20301;-61
2022/08/23 05:21:19;;;;;;;10.47;9.57;;;;;;;12.24;100.00;97104.91;4983356;28;20424;-63
2022/08/23 05:23:48;;;;;;;10.13;9.23;;;;;;;12.36;100.00;97120.28;5027961;28;20614;-63
2022/08/23 05:26:22;;;;;;;10.60;9.87;;;;;;;12.47;100.00;97113.59;5021979;28;21398;-63
2022/08/23 05:28:51;;;;;;;10.10;9.40;;;;;;;12.63;100.00;97113.22;5007257;28;20274;-60
2022/08/23 05:31:22;;;;;;;10.87;9.73;;;;;;;12.81;100.00;97111.88;5024535;28;20358;-63
2022/08/23 05:33:51;;;;;;;9.47;8.63;;;;;;;12.87;100.00;97109.22;5026226;28;20207;-60
2022/08/23 05:36:20;;;;;;;9.97;9.07;;;;;;;12.96;100.00;97111.72;4979998;28;20281;-64
2022/08/23 05:38:49;;;;;;;10.57;9.87;;;;;;;13.02;100.00;97103.72;5022094;28;20228;-61
2022/08/23 05:41:18;;;;;;;10.63;9.80;;;;;;;13.06;100.00;97103.31;5025838;28;20541;-65
2022/08/23 05:43:49;;;;;;;11.13;10.23;;;;;;;13.18;100.00;97117.69;5012110;28;20395;-65
2022/08/23 05:46:20;;;;;;;11.37;10.47;;;;;;;13.26;100.00;97125.47;5025409;28;20439;-62
2022/08/23 05:48:53;;;;;;;11.50;10.70;;;;;;;13.20;100.00;97120.13;5028802;28;20223;-60
2022/08/23 05:51:23;;;;;;;11.90;10.83;;;;;;;13.24;100.00;97124.84;4981063;28;21953;-65
2022/08/23 05:53:53;;;;;;;11.07;10.37;;;;;;;13.30;100.00;97129.38;4955358;28;20890;-63
2022/08/23 05:56:23;;;;;;;12.43;11.43;;;;;;;13.37;100.00;97131.22;5024008;28;20236;-59
2022/08/23 05:58:54;;;;;;;13.17;11.83;;;;;;;13.54;100.00;97124.50;5031089;28;20250;-61
2022/08/23 06:01:27;;;;;;;13.37;12.23;;;;;;;13.70;100.00;97133.09;5006735;28;20214;-62
2022/08/23 06:03:55;;;;;;;12.60;11.70;;;;;;;13.86;100.00;97137.19;5027401;28;20223;-62
2022/08/23 06:06:23;;;;;;;12.53;11.63;;;;;;;13.99;100.00;97133.69;5013173;28;20645;-61
2022/08/23 06:09:06;;;;;;;12.23;11.27;;;;;;;14.01;100.00;97132.44;4962142;28;20310;-65
2022/08/23 06:11:35;;;;;;;12.13;11.23;;;;;;;14.19;100.00;97131.00;5023846;28;20392;-64
2022/08/23 06:14:06;;;;;;;11.33;10.40;;;;;;;14.27;100.00;97133.44;5027287;28;20291;-64
2022/08/23 06:16:36;;;;;;;11.57;10.60;;;;;;;14.31;100.00;97125.84;5012368;28;20481;-64
2022/08/23 06:19:05;;;;;;;11.60;10.80;;;;;;;14.29;100.00;97136.72;5030530;28;20481;-64
2022/08/23 06:21:33;;;;;;;12.13;11.23;;;;;;;14.41;100.00;97136.88;5008860;28;21019;-65
2022/08/23 06:24:02;;;;;;;11.73;10.83;;;;;;;14.63;100.00;97139.28;4981471;28;20704;-65
2022/08/23 06:26:32;;;;;;;12.07;10.97;;;;;;;14.69;100.00;97138.44;5023884;28;20294;-65
2022/08/23 06:29:06;;;;;;;11.70;10.77;;;;;;;14.85;100.00;97129.16;5027623;28;20244;-62
2022/08/23 06:31:46;;;;;;;11.77;10.70;;;;;;;15.23;100.00;97130.19;5011535;28;20200;-64
2022/08/23 06:34:18;;;;;;;10.73;9.70;;;;;;;15.82;100.00;97134.47;5028407;28;20208;-62
2022/08/23 06:36:47;;;;;;;10.17;9.33;;;;;;;15.66;100.00;97138.50;5013659;28;20211;-65
2022/08/23 06:39:17;;;;;;;9.83;9.13;;;;;;;15.50;100.00;97143.34;4977627;28;20258;-62
2022/08/23 06:41:47;;;;;;;9.90;9.10;;;;;;;15.56;100.00;97145.16;5024630;28;20291;-65
2022/08/23 06:44:15;;;;;;;9.47;8.87;;;;;;;15.66;100.00;97147.34;5027749;28;20278;-62
2022/08/23 06:46:46;;;;;;;9.13;8.43;;;;;;;15.67;100.00;97150.81;5010812;28;20295;-64
2022/08/23 06:49:15;;;;;;;10.47;9.43;;;;;;;15.69;100.00;97154.09;5027027;28;20318;-62
2022/08/23 06:51:45;;;;;;;10.63;9.73;;;;;;;15.73;100.00;97152.66;5027378;28;20218;-64
2022/08/23 06:54:15;;;;;;;10.63;9.83;;;;;;;15.84;100.00;97151.94;4955233;28;20593;-62
2022/08/23 06:56:44;;;;;;;9.97;9.17;;;;;;;15.91;100.00;97159.94;5022674;28;20744;-65
2022/08/23 06:59:12;;;;;;;10.43;9.47;;;;;;;16.02;100.00;97158.38;5026853;28;20519;-63
2022/08/23 07:01:42;;;;;;;9.17;8.57;;;;;;;16.14;100.00;97161.97;5026446;28;20208;-65
2022/08/23 07:04:17;;;;;;;10.00;9.23;;;;;;;16.19;100.00;97158.63;5011327;28;20231;-62
2022/08/23 07:06:46;;;;;;;10.77;10.03;;;;;;;16.44;100.00;97166.59;5027475;28;20895;-65
2022/08/23 07:09:15;;;;;;;12.30;11.47;;;;;;;16.61;100.00;97153.44;4985674;28;20324;-63
2022/08/23 07:11:43;;;;;;;12.13;11.03;;;;;;;16.80;100.00;97166.81;5007153;28;20223;-64
2022/08/23 07:14:13;;;;;;;9.90;9.20;;;;;;;16.87;100.00;97159.53;5025776;28;20326;-63
2022/08/23 07:16:44;;;;;;;10.47;9.43;;;;;;;16.86;100.00;97159.75;5031043;28;20458;-65
2022/08/23 07:19:13;;;;;;;9.87;9.17;;;;;;;16.87;100.00;97161.41;5014319;28;20240;-62
2022/08/23 07:21:44;;;;;;;9.57;8.77;;;;;;;17.05;100.00;97173.97;5028130;28;20332;-65
2022/08/23 07:24:16;;;;;;;9.63;8.93;;;;;;;17.14;100.00;97161.91;4981870;28;21379;-62
2022/08/23 07:26:46;;;;;;;8.43;7.83;;;;;;;17.47;100.00;97167.81;5013354;28;20243;-62
2022/08/23 07:29:16;;;;;;;8.53;7.93;;;;;;;17.51;100.00;97166.31;5029334;28;20306;-62
2022/08/23 07:31:46;;;;;;;7.37;6.87;;;;;;;17.66;100.00;97163.19;5026873;28;20310;-64
2022/08/23 07:34:15;;;;;;;8.67;7.97;;;;;;;17.67;100.00;97156.78;5022599;28;20204;-62
2022/08/23 07:36:46;;;;;;;7.37;6.77;;;;;;;17.79;100.00;97156.81;5024715;28;20226;-64
2022/08/23 07:39:15;;;;;;;6.53;6.07;;;;;;;17.82;100.00;97151.00;5018669;28;20461;-62
2022/08/23 07:41:44;;;;;;;8.00;5.93;;;;;;;17.79;100.00;97157.63;4971588;28;20262;-63
2022/08/23 07:44:13;;;;;;;6.23;5.60;;;;;;;17.74;100.00;97154.03;5020434;28;20760;-60
2022/08/23 07:46:45;;;;;;;6.57;6.00;;;;;;;17.89;100.00;97157.06;5027867;28;20772;-64
2022/08/23 07:49:15;;;;;;;8.37;5.83;;;;;;;18.01;100.00;97153.63;5022720;28;20805;-61
2022/08/23 07:51:50;;;;;;;5.20;4.90;;;;;;;18.18;100.00;97167.13;5018339;28;20393;-65
2022/08/23 07:54:21;;;;;;;5.87;5.43;;;;;;;18.37;100.00;97163.28;5011437;28;20735;-61
2022/08/23 07:56:49;;;;;;;5.87;5.33;;;;;;;18.48;100.00;97164.31;4977007;28;20211;-64
2022/08/23 07:59:17;;;;;;;5.07;4.63;;;;;;;18.82;100.00;97155.59;5018021;28;20309;-63
2022/08/23 08:01:45;;;;;;;9.07;4.83;;;;;;;18.97;100.00;97159.66;4966741;28;20646;-61
2022/08/23 08:04:14;;;;;;;4.53;4.23;;;;;;;18.79;100.00;97158.75;5029406;28;20853;-63
2022/08/23 08:06:44;;;;;;;4.87;4.43;;;;;;;19.08;100.00;97167.69;5010665;28;20663;-61
2022/08/23 08:09:15;;;;;;;5.13;4.73;;;;;;;19.19;100.00;97167.88;5026726;28;20219;-63
2022/08/23 08:11:46;;;;;;;4.63;4.33;;;;;;;19.37;100.00;97161.50;5011288;28;20704;-61
2022/08/23 08:14:14;;;;;;;4.93;4.57;;;;;;;19.53;100.00;97167.97;5028110;28;20251;-62
2022/08/23 08:16:45;;;;;;;5.40;4.97;;;;;;;20.11;100.00;97167.81;4975638;28;21249;-61
2022/08/23 08:19:16;;;;;;;5.67;5.17;;;;;;;20.49;100.00;97173.50;5028085;28;20250;-63
2022/08/23 08:21:47;;;;;;;4.60;4.30;;;;;;;21.45;100.00;97163.28;5022917;28;20204;-62
2022/08/23 08:24:17;;;;;;;4.93;4.63;;;;;;;21.72;97.77;97167.88;5030080;28;20650;-64
2022/08/23 08:26:46;;;;;;;4.70;4.27;;;;;;;21.08;99.35;97155.91;5009060;28;20203;-61
2022/08/23 08:29:14;;;;;;;5.17;4.77;;;;;;;19.80;100.00;97162.75;5026531;28;20258;-63
2022/08/23 08:31:44;;;;;;;4.10;3.70;;;;;;;20.08;100.00;97158.41;4980195;28;20227;-60
2022/08/23 08:34:13;;;;;;;4.97;3.60;;;;;;;19.79;100.00;97165.69;5022059;28;20246;-63
2022/08/23 08:36:43;;;;;;;4.00;3.80;;;;;;;19.75;100.00;97159.16;5029404;28;20219;-61
2022/08/23 08:39:13;;;;;;;4.97;4.57;;;;;;;19.83;100.00;97163.34;5021700;28;20602;-64
2022/08/23 08:41:54;;;;;;;4.27;4.07;;;;;;;19.90;100.00;97164.84;5015736;28;20228;-61
2022/08/23 08:44:37;;;;;;;3.77;3.47;;;;;;;20.01;100.00;97162.31;5024064;28;20760;-61
2022/08/23 08:47:09;;;;;;;3.90;3.53;;;;;;;20.25;100.00;97165.63;4978337;28;20212;-63
2022/08/23 08:49:40;;;;;;;3.80;3.50;;;;;;;20.34;100.00;97160.63;5025491;28;20317;-60
2022/08/23 08:52:16;;;;;;;3.87;3.37;;;;;;;20.30;100.00;97159.50;5026113;28;20295;-63
2022/08/23 08:54:45;;;;;;;3.10;2.90;;;;;;;20.47;100.00;97154.88;5025714;28;21132;-58
2022/08/23 08:57:20;;;;;;;3.47;2.90;;;;;;;20.70;100.00;97157.59;5012887;28;20208;-62
2022/08/23 08:59:56;;;;;;;3.33;3.13;;;;;;;20.84;100.00;97161.59;5019899;28;21450;-63
2022/08/23 09:02:28;;;;;;;2.93;2.83;;;;;;;20.90;98.57;97160.56;4979332;28;20678;-63
2022/08/23 09:05:01;;;;;;;3.10;2.90;;;;;;;20.89;94.87;97156.25;5022532;28;20329;-60
2022/08/23 09:07:41;;;;;;;5.10;3.17;;;;;;;20.92;95.08;97161.13;5025338;28;20250;-61
2022/08/23 09:10:27;;;;;;;2.80;2.70;;;;;;;21.05;95.34;97154.56;5023925;28;20641;-61
2022/08/23 09:13:07;;;;;;;2.67;2.47;;;;;;;21.28;96.21;97158.00;5009082;28;20239;-63
2022/08/23 09:15:40;;;;;;;2.97;2.63;;;;;;;21.27;89.70;97156.38;5028009;28;20315;-64
2022/08/23 09:18:10;;;;;;;2.80;2.70;;;;;;;20.94;91.53;97160.88;4980312;28;20231;-62
2022/08/23 09:20:40;;;;;;;3.20;2.90;;;;;;;21.05;99.58;97145.66;5022290;28;20679;-60
2022/08/23 09:23:11;;;;;;;2.50;2.40;;;;;;;21.22;92.38;97157.16;5031088;28;20207;-62
2022/08/23 09:25:39;;;;;;;3.00;2.80;;;;;;;21.17;91.11;97150.91;5027330;28;20358;-60
2022/08/23 09:28:10;;;;;;;2.33;2.23;;;;;;;21.20;94.78;97153.06;5017543;28;20866;-63
2022/08/23 09:30:50;;;;;;;2.73;2.63;;;;;;;21.25;92.68;97151.25;5027566;28;20294;-61
2022/08/23 09:33:22;;;;;;;2.67;2.47;;;;;;;21.17;94.73;97151.69;5029279;28;20645;-62
2022/08/23 09:36:07;;;;;;;2.70;2.60;;;;;;;21.28;90.70;97152.63;4977533;28;21739;-63
2022/08/23 09:38:35;;;;;;;2.60;2.50;;;;;;;21.38;93.94;97154.59;5025099;28;20601;-61
2022/08/23 09:41:18;;;;;;;5.40;4.10;;;;;;;21.58;91.71;97145.91;5030192;28;20208;-63
2022/08/23 09:43:49;;;;;;;2.50;2.40;;;;;;;21.57;86.03;97151.53;5009117;28;20238;-58
2022/08/23 09:46:26;;;;;;;2.23;2.10;;;;;;;21.59;82.29;97152.09;5027675;28;20273;-63
2022/08/23 09:48:57;;;;;;;2.40;2.30;;;;;;;21.36;88.48;97148.66;4979555;28;20527;-65
2022/08/23 09:51:29;;;;;;;2.33;2.10;;;;;;;21.62;83.75;97151.59;5012384;28;20308;-62
2022/08/23 09:54:07;;;;;;;2.07;1.97;;;;;;;21.71;81.79;97154.66;5027314;28;20258;-65
2022/08/23 09:56:38;;;;;;;2.20;2.10;;;;;;;21.74;78.14;97151.44;5019182;28;20295;-64
2022/08/23 09:59:23;;;;;;;1.87;1.70;;;;;;;21.88;79.18;97149.94;4998188;28;20341;-65
2022/08/23 10:01:55;;;;;;;2.50;2.40;;;;;;;21.99;75.50;97148.16;5029687;28;20823;-62
2022/08/23 10:04:31;;;;;;;1.70;1.60;;;;;;;22.01;68.20;97155.97;4994902;28;20269;-60
2022/08/23 10:07:01;;;;;;;2.93;1.63;;;;;;;22.00;69.63;97155.16;4969444;28;21491;-64
2022/08/23 10:09:33;;;;;;;2.23;1.80;;;;;;;22.05;70.88;97146.28;5023626;28;20238;-64
2022/08/23 10:12:02;;;;;;;2.17;2.00;;;;;;;22.11;69.68;97147.94;5025535;28;20203;-64
2022/08/23 10:14:35;;;;;;;3.63;1.93;;;;;;;22.15;66.77;97153.63;5027869;28;20428;-64
2022/08/23 10:17:09;;;;;;;1.43;1.40;;;;;;;22.23;65.61;97145.88;5026798;28;20699;-64
2022/08/23 10:19:44;;;;;;;6.50;2.90;;;;;;;22.22;64.20;97141.56;5023568;28;20224;-62
2022/08/23 10:22:21;;;;;;;1.53;1.53;;;;;;;22.33;64.24;97139.69;4982935;28;20944;-64
2022/08/23 10:24:57;;;;;;;1.30;1.30;;;;;;;22.43;63.92;97138.94;5021410;28;20231;-61
2022/08/23 10:30:23;;;;;;;1.53;1.43;;;;;;;22.44;61.23;97132.47;5022148;28;20212;-63
2022/08/23 10:32:59;;;;;;;2.00;1.90;;;;;;;22.22;60.82;97127.22;5023306;28;20204;-61
2022/08/23 10:35:31;;;;;;;2.30;2.10;;;;;;;22.36;60.65;97120.31;5031592;28;20214;-63
2022/08/23 10:38:25;;;;;;;2.00;1.83;;;;;;;22.58;69.01;97132.84;4978759;28;21479;-62
2022/08/23 10:40:58;;;;;;;1.87;1.77;;;;;;;22.69;64.32;97125.59;5023274;28;20242;-61
2022/08/23 10:43:34;;;;;;;2.40;1.90;;;;;;;22.68;62.77;97127.47;5028638;28;20208;-62
2022/08/23 10:46:07;;;;;;;2.67;1.97;;;;;;;22.76;64.20;97131.56;5026406;28;20250;-61
2022/08/23 10:48:39;;;;;;;1.90;1.80;;;;;;;22.56;67.06;97121.50;5029966;28;20218;-63
2022/08/23 10:51:11;;;;;;;1.97;1.87;;;;;;;22.66;67.70;97132.34;5025241;28;20269;-64
2022/08/23 10:53:45;;;;;;;1.90;1.80;;;;;;;22.73;69.75;97121.31;4979108;28;20220;-60
2022/08/23 10:56:18;;;;;;;1.80;1.70;;;;;;;22.70;65.45;97130.72;5024842;28;20455;-64
2022/08/23 10:58:49;;;;;;;1.73;1.67;;;;;;;22.78;70.77;97134.03;5030337;28;20575;-60
2022/08/23 11:01:22;;;;;;;1.90;1.80;;;;;;;22.90;71.34;97126.50;5027654;28;20195;-64
2022/08/23 11:04:01;;;;;;;1.90;1.80;;;;;;;22.91;69.58;97132.69;5027521;28;20317;-61
2022/08/23 11:06:51;;;;;;;2.60;1.90;;;;;;;22.84;66.30;97124.84;5028164;28;20234;-64
2022/08/23 11:09:53;;;;;;;1.90;1.80;;;;;;;22.91;64.41;97114.59;4977445;28;20234;-64
2022/08/23 11:12:25;;;;;;;2.27;2.07;;;;;;;22.93;63.01;97117.84;5015406;28;20284;-62
2022/08/23 11:15:10;;;;;;;1.30;1.30;;;;;;;23.08;64.97;97121.66;5027638;28;20273;-62
2022/08/23 11:17:55;;;;;;;1.57;1.47;;;;;;;23.02;66.32;97120.84;5023834;28;20297;-60
2022/08/23 11:20:55;;;;;;;1.87;1.77;;;;;;;23.19;68.98;97117.91;5031936;28;20650;-64
2022/08/23 11:23:46;;;;;;;1.87;1.77;;;;;;;23.25;65.15;97116.88;4981569;28;20213;-64
2022/08/23 11:26:54;;;;;;;3.23;1.70;;;;;;;23.36;60.51;97111.47;5023871;28;20259;-63
2022/08/23 11:29:31;;;;;;;1.50;1.50;;;;;;;23.55;63.21;97109.06;5009400;28;20580;-61
2022/08/23 11:32:03;;;;;;;3.10;1.33;;;;;;;23.49;61.30;97110.97;5023332;28;20719;-64
2022/08/23 11:34:36;;;;;;;1.87;1.77;;;;;;;23.53;62.35;97108.50;5026997;28;20645;-64
2022/08/23 11:37:25;;;;;;;1.20;1.20;;;;;;;23.64;60.98;97107.44;5024909;28;20376;-65
2022/08/23 11:40:08;;;;;;;1.90;1.80;;;;;;;23.66;55.90;97104.47;4975951;28;20720;-61
2022/08/23 11:42:48;;;;;;;1.50;1.40;;;;;;;23.60;58.10;97109.06;5023228;28;20211;-61
2022/08/23 11:45:29;;;;;;;1.80;1.70;;;;;;;23.72;59.97;97111.50;5026490;28;20223;-64
2022/08/23 11:48:13;;;;;;;1.97;1.73;;;;;;;23.72;61.53;97108.78;5024848;28;20655;-64
2022/08/23 11:51:04;;;;;;;1.73;1.63;;;;;;;23.90;58.78;97109.31;5028590;28;20247;-61
2022/08/23 11:53:47;;;;;;;2.67;2.47;;;;;;;23.87;62.55;97107.97;5026734;28;20212;-62
2022/08/23 11:56:36;;;;;;;1.80;1.70;;;;;;;23.80;63.69;97112.84;5012644;28;20222;-65
2022/08/23 11:59:33;;;;;;;1.80;1.70;;;;;;;23.93;60.61;97109.56;5017873;28;20857;-65
2022/08/23 12:02:35;;;;;;;1.90;1.80;;;;;;;24.05;54.84;97117.44;5019935;28;20212;-64